sensor_id;sensor_type;location;lat;lon;timestamp;P1;durP1;ratioP1;P2;durP2;ratioP2
21901;SDS011;11115;46.038;14.612;2023-01-15T00:02:25;3.20;;;2.53;;
21901;SDS011;11115;46.038;14.612;2023-01-15T00:04:53;18.60;;;3.10;;
21901;SDS011;11115;46.038;14.612;2023-01-15T00:07:21;3.77;;;2.47;;
21901;SDS011;11115;46.038;14.612;2023-01-15T00:09:48;2.63;;;1.73;;
21901;SDS011;11115;46.038;14.612;2023-01-15T00:12:16;2.47;;;2.23;;
21901;SDS011;11115;46.038;14.612;2023-01-15T00:14:44;2.77;;;1.80;;
21901;SDS011;11115;46.038;14.612;2023-01-15T00:17:12;3.57;;;2.27;;
21901;SDS011;11115;46.038;14.612;2023-01-15T00:19:40;4.43;;;2.63;;
21901;SDS011;11115;46.038;14.612;2023-01-15T00:22:07;5.77;;;2.30;;
21901;SDS011;11115;46.038;14.612;2023-01-15T00:24:35;2.47;;;1.90;;
21901;SDS011;11115;46.038;14.612;2023-01-15T00:27:20;6.33;;;1.77;;
21901;SDS011;11115;46.038;14.612;2023-01-15T00:30:10;4.10;;;1.70;;
21901;SDS011;11115;46.038;14.612;2023-01-15T00:32:40;6.17;;;2.50;;
21901;SDS011;11115;46.038;14.612;2023-01-15T00:35:12;3.03;;;2.40;;
21901;SDS011;11115;46.038;14.612;2023-01-15T00:37:43;3.50;;;2.37;;
21901;SDS011;11115;46.038;14.612;2023-01-15T00:40:11;3.17;;;2.27;;
21901;SDS011;11115;46.038;14.612;2023-01-15T00:42:40;1.73;;;1.63;;
21901;SDS011;11115;46.038;14.612;2023-01-15T00:45:11;3.10;;;1.77;;
21901;SDS011;11115;46.038;14.612;2023-01-15T00:47:40;4.93;;;1.60;;
21901;SDS011;11115;46.038;14.612;2023-01-15T00:50:13;7.47;;;1.90;;
21901;SDS011;11115;46.038;14.612;2023-01-15T00:52:42;11.40;;;2.37;;
21901;SDS011;11115;46.038;14.612;2023-01-15T00:55:09;1.47;;;1.37;;
21901;SDS011;11115;46.038;14.612;2023-01-15T00:57:37;2.67;;;2.07;;
21901;SDS011;11115;46.038;14.612;2023-01-15T01:00:05;2.73;;;1.47;;
21901;SDS011;11115;46.038;14.612;2023-01-15T01:02:33;2.60;;;2.00;;
21901;SDS011;11115;46.038;14.612;2023-01-15T01:05:01;3.00;;;1.90;;
21901;SDS011;11115;46.038;14.612;2023-01-15T01:07:29;6.03;;;1.93;;
21901;SDS011;11115;46.038;14.612;2023-01-15T01:09:56;4.73;;;2.70;;
21901;SDS011;11115;46.038;14.612;2023-01-15T01:12:24;3.40;;;2.60;;
21901;SDS011;11115;46.038;14.612;2023-01-15T01:14:53;2.50;;;1.53;;
21901;SDS011;11115;46.038;14.612;2023-01-15T01:17:21;5.03;;;2.80;;
21901;SDS011;11115;46.038;14.612;2023-01-15T01:19:48;8.43;;;3.23;;
21901;SDS011;11115;46.038;14.612;2023-01-15T01:22:16;3.77;;;2.03;;
21901;SDS011;11115;46.038;14.612;2023-01-15T01:24:44;4.37;;;2.50;;
21901;SDS011;11115;46.038;14.612;2023-01-15T01:27:11;3.17;;;2.13;;
21901;SDS011;11115;46.038;14.612;2023-01-15T01:29:39;4.37;;;2.53;;
21901;SDS011;11115;46.038;14.612;2023-01-15T01:32:07;7.17;;;2.73;;
21901;SDS011;11115;46.038;14.612;2023-01-15T01:34:35;6.87;;;2.87;;
21901;SDS011;11115;46.038;14.612;2023-01-15T01:37:04;5.37;;;2.67;;
21901;SDS011;11115;46.038;14.612;2023-01-15T01:39:31;6.03;;;2.47;;
21901;SDS011;11115;46.038;14.612;2023-01-15T01:41:59;3.67;;;2.57;;
21901;SDS011;11115;46.038;14.612;2023-01-15T01:47:02;2.57;;;2.37;;
21901;SDS011;11115;46.038;14.612;2023-01-15T01:49:36;4.73;;;2.60;;
21901;SDS011;11115;46.038;14.612;2023-01-15T01:52:07;6.83;;;3.20;;
21901;SDS011;11115;46.038;14.612;2023-01-15T01:54:37;5.40;;;3.38;;
21901;SDS011;11115;46.038;14.612;2023-01-15T01:57:06;7.20;;;2.50;;
21901;SDS011;11115;46.038;14.612;2023-01-15T01:59:36;4.20;;;2.03;;
21901;SDS011;11115;46.038;14.612;2023-01-15T02:02:04;7.73;;;3.00;;
21901;SDS011;11115;46.038;14.612;2023-01-15T02:04:32;3.40;;;2.17;;
21901;SDS011;11115;46.038;14.612;2023-01-15T02:07:03;3.60;;;2.17;;
21901;SDS011;11115;46.038;14.612;2023-01-15T02:09:33;3.33;;;1.97;;
21901;SDS011;11115;46.038;14.612;2023-01-15T02:12:10;6.60;;;3.17;;
21901;SDS011;11115;46.038;14.612;2023-01-15T02:14:54;3.30;;;1.90;;
21901;SDS011;11115;46.038;14.612;2023-01-15T02:21:04;6.50;;;3.03;;
21901;SDS011;11115;46.038;14.612;2023-01-15T02:29:33;4.37;;;2.67;;
21901;SDS011;11115;46.038;14.612;2023-01-15T02:32:42;4.50;;;2.93;;
21901;SDS011;11115;46.038;14.612;2023-01-15T02:35:18;4.23;;;3.37;;
21901;SDS011;11115;46.038;14.612;2023-01-15T02:37:56;6.33;;;3.20;;
21901;SDS011;11115;46.038;14.612;2023-01-15T02:40:27;3.67;;;2.17;;
21901;SDS011;11115;46.038;14.612;2023-01-15T02:42:58;11.03;;;3.33;;
21901;SDS011;11115;46.038;14.612;2023-01-15T02:45:28;5.87;;;2.47;;
21901;SDS011;11115;46.038;14.612;2023-01-15T02:48:10;3.30;;;1.93;;
21901;SDS011;11115;46.038;14.612;2023-01-15T02:50:44;3.10;;;2.45;;
21901;SDS011;11115;46.038;14.612;2023-01-15T02:53:29;6.43;;;2.33;;
21901;SDS011;11115;46.038;14.612;2023-01-15T02:56:02;2.47;;;1.13;;
21901;SDS011;11115;46.038;14.612;2023-01-15T02:58:43;8.73;;;3.53;;
21901;SDS011;11115;46.038;14.612;2023-01-15T03:01:13;4.00;;;2.67;;
21901;SDS011;11115;46.038;14.612;2023-01-15T03:03:54;8.37;;;3.17;;
21901;SDS011;11115;46.038;14.612;2023-01-15T03:06:37;4.37;;;2.83;;
21901;SDS011;11115;46.038;14.612;2023-01-15T03:09:10;7.27;;;2.40;;
21901;SDS011;11115;46.038;14.612;2023-01-15T03:11:46;4.57;;;2.57;;
21901;SDS011;11115;46.038;14.612;2023-01-15T03:14:21;3.50;;;2.23;;
21901;SDS011;11115;46.038;14.612;2023-01-15T03:17:03;4.23;;;1.90;;
21901;SDS011;11115;46.038;14.612;2023-01-15T03:24:53;5.70;;;3.23;;
21901;SDS011;11115;46.038;14.612;2023-01-15T03:27:41;4.90;;;3.17;;
21901;SDS011;11115;46.038;14.612;2023-01-15T03:32:41;1.87;;;1.53;;
21901;SDS011;11115;46.038;14.612;2023-01-15T03:38:30;2.23;;;1.87;;
21901;SDS011;11115;46.038;14.612;2023-01-15T03:43:54;1.57;;;1.47;;
21901;SDS011;11115;46.038;14.612;2023-01-15T03:46:36;5.73;;;1.93;;
21901;SDS011;11115;46.038;14.612;2023-01-15T03:52:13;5.23;;;2.43;;
21901;SDS011;11115;46.038;14.612;2023-01-15T03:54:51;5.13;;;3.10;;
21901;SDS011;11115;46.038;14.612;2023-01-15T03:57:32;3.27;;;2.10;;
21901;SDS011;11115;46.038;14.612;2023-01-15T04:00:12;2.80;;;2.27;;
21901;SDS011;11115;46.038;14.612;2023-01-15T04:02:49;2.57;;;2.30;;
21901;SDS011;11115;46.038;14.612;2023-01-15T04:05:23;2.93;;;2.57;;
21901;SDS011;11115;46.038;14.612;2023-01-15T04:07:53;2.10;;;1.90;;
21901;SDS011;11115;46.038;14.612;2023-01-15T04:10:21;4.33;;;3.17;;
21901;SDS011;11115;46.038;14.612;2023-01-15T04:12:50;4.07;;;2.73;;
21901;SDS011;11115;46.038;14.612;2023-01-15T04:15:18;3.23;;;1.53;;
21901;SDS011;11115;46.038;14.612;2023-01-15T04:17:47;1.77;;;1.63;;
21901;SDS011;11115;46.038;14.612;2023-01-15T04:20:15;6.10;;;2.13;;
21901;SDS011;11115;46.038;14.612;2023-01-15T04:22:44;2.07;;;1.70;;
21901;SDS011;11115;46.038;14.612;2023-01-15T04:25:12;1.53;;;1.43;;
21901;SDS011;11115;46.038;14.612;2023-01-15T04:27:39;3.60;;;2.57;;
21901;SDS011;11115;46.038;14.612;2023-01-15T04:30:07;2.47;;;1.63;;
21901;SDS011;11115;46.038;14.612;2023-01-15T04:32:35;1.63;;;1.53;;
21901;SDS011;11115;46.038;14.612;2023-01-15T04:35:03;2.23;;;1.13;;
21901;SDS011;11115;46.038;14.612;2023-01-15T04:37:31;4.30;;;2.10;;
21901;SDS011;11115;46.038;14.612;2023-01-15T04:39:58;2.50;;;1.87;;
21901;SDS011;11115;46.038;14.612;2023-01-15T04:42:26;3.70;;;2.03;;
21901;SDS011;11115;46.038;14.612;2023-01-15T04:45:11;1.90;;;1.60;;
21901;SDS011;11115;46.038;14.612;2023-01-15T04:47:39;1.47;;;1.30;;
21901;SDS011;11115;46.038;14.612;2023-01-15T04:50:07;1.73;;;1.40;;
21901;SDS011;11115;46.038;14.612;2023-01-15T04:52:36;1.87;;;1.73;;
21901;SDS011;11115;46.038;14.612;2023-01-15T04:55:04;1.87;;;1.30;;
21901;SDS011;11115;46.038;14.612;2023-01-15T04:57:32;1.57;;;1.47;;
21901;SDS011;11115;46.038;14.612;2023-01-15T05:00:00;1.50;;;1.40;;
21901;SDS011;11115;46.038;14.612;2023-01-15T05:02:28;2.27;;;2.00;;
21901;SDS011;11115;46.038;14.612;2023-01-15T05:04:56;3.37;;;2.57;;
21901;SDS011;11115;46.038;14.612;2023-01-15T05:07:23;2.93;;;2.07;;
21901;SDS011;11115;46.038;14.612;2023-01-15T05:09:51;2.77;;;2.30;;
21901;SDS011;11115;46.038;14.612;2023-01-15T05:12:20;1.83;;;1.73;;
21901;SDS011;11115;46.038;14.612;2023-01-15T05:14:48;2.50;;;1.87;;
21901;SDS011;11115;46.038;14.612;2023-01-15T05:17:15;3.57;;;2.10;;
21901;SDS011;11115;46.038;14.612;2023-01-15T05:19:43;4.53;;;2.27;;
21901;SDS011;11115;46.038;14.612;2023-01-15T05:22:14;1.93;;;1.73;;
21901;SDS011;11115;46.038;14.612;2023-01-15T05:24:41;2.30;;;1.70;;
21901;SDS011;11115;46.038;14.612;2023-01-15T05:27:09;2.03;;;1.80;;
21901;SDS011;11115;46.038;14.612;2023-01-15T05:29:37;4.37;;;2.80;;
21901;SDS011;11115;46.038;14.612;2023-01-15T05:32:04;5.63;;;2.60;;
21901;SDS011;11115;46.038;14.612;2023-01-15T05:34:35;2.43;;;1.53;;
21901;SDS011;11115;46.038;14.612;2023-01-15T05:37:02;10.90;;;2.90;;
21901;SDS011;11115;46.038;14.612;2023-01-15T05:39:30;2.47;;;1.57;;
21901;SDS011;11115;46.038;14.612;2023-01-15T05:41:58;7.97;;;3.03;;
21901;SDS011;11115;46.038;14.612;2023-01-15T05:44:26;3.03;;;1.80;;
21901;SDS011;11115;46.038;14.612;2023-01-15T05:46:59;6.27;;;2.83;;
21901;SDS011;11115;46.038;14.612;2023-01-15T05:49:31;4.50;;;1.80;;
21901;SDS011;11115;46.038;14.612;2023-01-15T05:51:59;5.43;;;2.97;;
21901;SDS011;11115;46.038;14.612;2023-01-15T05:54:29;2.27;;;1.73;;
21901;SDS011;11115;46.038;14.612;2023-01-15T05:57:00;1.57;;;1.47;;
21901;SDS011;11115;46.038;14.612;2023-01-15T05:59:29;2.93;;;2.37;;
21901;SDS011;11115;46.038;14.612;2023-01-15T06:01:58;7.17;;;4.27;;
21901;SDS011;11115;46.038;14.612;2023-01-15T06:04:26;4.23;;;3.17;;
21901;SDS011;11115;46.038;14.612;2023-01-15T06:06:54;7.10;;;2.80;;
21901;SDS011;11115;46.038;14.612;2023-01-15T06:09:23;5.90;;;2.80;;
21901;SDS011;11115;46.038;14.612;2023-01-15T06:11:53;5.97;;;3.47;;
21901;SDS011;11115;46.038;14.612;2023-01-15T06:14:21;5.60;;;1.73;;
21901;SDS011;11115;46.038;14.612;2023-01-15T06:16:49;3.13;;;1.90;;
21901;SDS011;11115;46.038;14.612;2023-01-15T06:19:17;7.50;;;3.43;;
21901;SDS011;11115;46.038;14.612;2023-01-15T06:21:45;3.87;;;2.23;;
21901;SDS011;11115;46.038;14.612;2023-01-15T06:24:12;2.80;;;1.90;;
21901;SDS011;11115;46.038;14.612;2023-01-15T06:26:41;8.40;;;3.03;;
21901;SDS011;11115;46.038;14.612;2023-01-15T06:29:09;3.37;;;2.20;;
21901;SDS011;11115;46.038;14.612;2023-01-15T06:31:37;5.50;;;2.77;;
21901;SDS011;11115;46.038;14.612;2023-01-15T06:34:05;5.73;;;1.73;;
21901;SDS011;11115;46.038;14.612;2023-01-15T06:36:32;5.97;;;3.03;;
21901;SDS011;11115;46.038;14.612;2023-01-15T06:39:00;7.50;;;2.83;;
21901;SDS011;11115;46.038;14.612;2023-01-15T06:41:30;13.23;;;4.73;;
21901;SDS011;11115;46.038;14.612;2023-01-15T06:44:16;4.23;;;3.03;;
21901;SDS011;11115;46.038;14.612;2023-01-15T06:47:08;8.23;;;5.00;;
21901;SDS011;11115;46.038;14.612;2023-01-15T06:49:49;12.63;;;3.63;;
21901;SDS011;11115;46.038;14.612;2023-01-15T06:52:25;5.27;;;3.27;;
21901;SDS011;11115;46.038;14.612;2023-01-15T06:54:54;5.37;;;2.33;;
21901;SDS011;11115;46.038;14.612;2023-01-15T06:57:22;4.37;;;1.73;;
21901;SDS011;11115;46.038;14.612;2023-01-15T06:59:50;4.10;;;2.57;;
21901;SDS011;11115;46.038;14.612;2023-01-15T07:02:18;4.20;;;2.67;;
21901;SDS011;11115;46.038;14.612;2023-01-15T07:04:47;4.70;;;2.97;;
21901;SDS011;11115;46.038;14.612;2023-01-15T07:07:15;6.23;;;2.77;;
21901;SDS011;11115;46.038;14.612;2023-01-15T07:09:44;7.07;;;3.00;;
21901;SDS011;11115;46.038;14.612;2023-01-15T07:12:12;6.20;;;3.10;;
21901;SDS011;11115;46.038;14.612;2023-01-15T07:14:39;6.90;;;2.93;;
21901;SDS011;11115;46.038;14.612;2023-01-15T07:17:07;3.40;;;2.40;;
21901;SDS011;11115;46.038;14.612;2023-01-15T07:19:35;4.60;;;2.40;;
21901;SDS011;11115;46.038;14.612;2023-01-15T07:22:03;3.73;;;2.60;;
21901;SDS011;11115;46.038;14.612;2023-01-15T07:24:31;7.33;;;2.30;;
21901;SDS011;11115;46.038;14.612;2023-01-15T07:27:00;6.63;;;3.80;;
21901;SDS011;11115;46.038;14.612;2023-01-15T07:29:28;7.60;;;2.60;;
21901;SDS011;11115;46.038;14.612;2023-01-15T07:31:57;6.33;;;3.40;;
21901;SDS011;11115;46.038;14.612;2023-01-15T07:34:24;3.73;;;2.57;;
21901;SDS011;11115;46.038;14.612;2023-01-15T07:36:52;3.27;;;2.20;;
21901;SDS011;11115;46.038;14.612;2023-01-15T07:39:20;3.57;;;2.20;;
21901;SDS011;11115;46.038;14.612;2023-01-15T07:41:47;7.10;;;3.80;;
21901;SDS011;11115;46.038;14.612;2023-01-15T07:44:48;7.90;;;5.17;;
21901;SDS011;11115;46.038;14.612;2023-01-15T07:47:33;7.90;;;4.47;;
21901;SDS011;11115;46.038;14.612;2023-01-15T07:50:19;20.40;;;7.03;;
21901;SDS011;11115;46.038;14.612;2023-01-15T07:52:48;7.33;;;3.83;;
21901;SDS011;11115;46.038;14.612;2023-01-15T07:55:18;11.23;;;4.63;;
21901;SDS011;11115;46.038;14.612;2023-01-15T07:57:46;28.30;;;5.53;;
21901;SDS011;11115;46.038;14.612;2023-01-15T08:00:18;11.77;;;5.10;;
21901;SDS011;11115;46.038;14.612;2023-01-15T08:02:49;5.77;;;4.30;;
21901;SDS011;11115;46.038;14.612;2023-01-15T08:05:17;13.20;;;4.23;;
21901;SDS011;11115;46.038;14.612;2023-01-15T08:07:45;7.20;;;4.03;;
21901;SDS011;11115;46.038;14.612;2023-01-15T08:10:14;8.83;;;4.57;;
21901;SDS011;11115;46.038;14.612;2023-01-15T08:12:42;10.13;;;4.07;;
21901;SDS011;11115;46.038;14.612;2023-01-15T08:15:28;4.07;;;2.63;;
21901;SDS011;11115;46.038;14.612;2023-01-15T08:17:59;12.67;;;3.50;;
21901;SDS011;11115;46.038;14.612;2023-01-15T08:20:27;3.77;;;2.47;;
21901;SDS011;11115;46.038;14.612;2023-01-15T08:22:55;6.53;;;3.77;;
21901;SDS011;11115;46.038;14.612;2023-01-15T08:25:23;13.03;;;3.50;;
21901;SDS011;11115;46.038;14.612;2023-01-15T08:27:52;5.17;;;3.20;;
21901;SDS011;11115;46.038;14.612;2023-01-15T08:30:22;7.23;;;3.93;;
21901;SDS011;11115;46.038;14.612;2023-01-15T08:32:51;9.77;;;3.07;;
21901;SDS011;11115;46.038;14.612;2023-01-15T08:35:18;4.13;;;3.23;;
21901;SDS011;11115;46.038;14.612;2023-01-15T08:37:46;7.13;;;4.37;;
21901;SDS011;11115;46.038;14.612;2023-01-15T08:40:14;5.70;;;3.47;;
21901;SDS011;11115;46.038;14.612;2023-01-15T08:42:42;7.57;;;3.93;;
21901;SDS011;11115;46.038;14.612;2023-01-15T08:45:10;10.00;;;4.07;;
21901;SDS011;11115;46.038;14.612;2023-01-15T08:47:38;10.93;;;5.10;;
21901;SDS011;11115;46.038;14.612;2023-01-15T08:50:06;9.17;;;5.50;;
21901;SDS011;11115;46.038;14.612;2023-01-15T08:52:35;5.47;;;3.83;;
21901;SDS011;11115;46.038;14.612;2023-01-15T08:55:04;5.27;;;2.77;;
21901;SDS011;11115;46.038;14.612;2023-01-15T08:57:32;10.33;;;4.80;;
21901;SDS011;11115;46.038;14.612;2023-01-15T09:00:00;24.63;;;8.30;;
21901;SDS011;11115;46.038;14.612;2023-01-15T09:02:28;23.07;;;7.60;;
21901;SDS011;11115;46.038;14.612;2023-01-15T09:04:55;15.73;;;6.53;;
21901;SDS011;11115;46.038;14.612;2023-01-15T09:07:23;8.73;;;5.40;;
21901;SDS011;11115;46.038;14.612;2023-01-15T09:09:51;20.33;;;4.90;;
21901;SDS011;11115;46.038;14.612;2023-01-15T09:12:19;12.83;;;6.83;;
21901;SDS011;11115;46.038;14.612;2023-01-15T09:14:50;13.97;;;4.90;;
21901;SDS011;11115;46.038;14.612;2023-01-15T09:17:27;5.43;;;4.00;;
21901;SDS011;11115;46.038;14.612;2023-01-15T09:19:55;10.00;;;4.20;;
21901;SDS011;11115;46.038;14.612;2023-01-15T09:22:23;7.33;;;4.10;;
21901;SDS011;11115;46.038;14.612;2023-01-15T09:24:53;4.67;;;3.63;;
21901;SDS011;11115;46.038;14.612;2023-01-15T09:27:21;10.43;;;4.17;;
21901;SDS011;11115;46.038;14.612;2023-01-15T09:29:48;16.67;;;5.83;;
21901;SDS011;11115;46.038;14.612;2023-01-15T09:32:16;8.37;;;3.80;;
21901;SDS011;11115;46.038;14.612;2023-01-15T09:34:44;27.60;;;9.00;;
21901;SDS011;11115;46.038;14.612;2023-01-15T09:37:11;17.77;;;8.30;;
21901;SDS011;11115;46.038;14.612;2023-01-15T09:39:39;12.83;;;4.80;;
21901;SDS011;11115;46.038;14.612;2023-01-15T09:48:02;14.10;;;7.77;;
21901;SDS011;11115;46.038;14.612;2023-01-15T09:51:38;24.00;;;10.33;;
21901;SDS011;11115;46.038;14.612;2023-01-15T09:53:44;19.63;;;7.57;;
21901;SDS011;11115;46.038;14.612;2023-01-15T09:56:23;15.87;;;6.77;;
21901;SDS011;11115;46.038;14.612;2023-01-15T09:58:53;24.45;;;5.03;;
21901;SDS011;11115;46.038;14.612;2023-01-15T10:01:26;20.90;;;4.97;;
21901;SDS011;11115;46.038;14.612;2023-01-15T10:04:08;12.83;;;5.13;;
21901;SDS011;11115;46.038;14.612;2023-01-15T10:07:27;8.17;;;4.27;;
21901;SDS011;11115;46.038;14.612;2023-01-15T10:09:34;6.37;;;3.27;;
21901;SDS011;11115;46.038;14.612;2023-01-15T10:12:12;7.10;;;4.53;;
21901;SDS011;11115;46.038;14.612;2023-01-15T10:22:56;8.57;;;3.53;;
21901;SDS011;11115;46.038;14.612;2023-01-15T10:25:39;4.40;;;2.87;;
21901;SDS011;11115;46.038;14.612;2023-01-15T10:28:16;7.33;;;3.97;;
21901;SDS011;11115;46.038;14.612;2023-01-15T10:30:51;8.40;;;4.73;;
21901;SDS011;11115;46.038;14.612;2023-01-15T10:33:42;24.52;;;4.00;;
21901;SDS011;11115;46.038;14.612;2023-01-15T10:36:35;6.97;;;3.15;;
21901;SDS011;11115;46.038;14.612;2023-01-15T10:39:29;8.47;;;3.80;;
21901;SDS011;11115;46.038;14.612;2023-01-15T10:45:12;9.93;;;4.40;;
21901;SDS011;11115;46.038;14.612;2023-01-15T10:47:46;6.30;;;4.43;;
21901;SDS011;11115;46.038;14.612;2023-01-15T10:52:48;8.93;;;4.60;;
21901;SDS011;11115;46.038;14.612;2023-01-15T10:55:26;5.13;;;3.53;;
21901;SDS011;11115;46.038;14.612;2023-01-15T11:01:10;7.57;;;4.53;;
21901;SDS011;11115;46.038;14.612;2023-01-15T11:03:42;13.63;;;6.83;;
21901;SDS011;11115;46.038;14.612;2023-01-15T11:06:12;18.43;;;6.03;;
21901;SDS011;11115;46.038;14.612;2023-01-15T11:08:43;22.17;;;7.90;;
21901;SDS011;11115;46.038;14.612;2023-01-15T11:11:45;15.57;;;6.73;;
21901;SDS011;11115;46.038;14.612;2023-01-15T11:14:36;13.73;;;6.70;;
21901;SDS011;11115;46.038;14.612;2023-01-15T11:23:10;11.57;;;7.50;;
21901;SDS011;11115;46.038;14.612;2023-01-15T11:25:50;12.52;;;6.03;;
21901;SDS011;11115;46.038;14.612;2023-01-15T11:31:06;14.97;;;6.30;;
21901;SDS011;11115;46.038;14.612;2023-01-15T11:33:34;15.23;;;6.90;;
21901;SDS011;11115;46.038;14.612;2023-01-15T11:36:04;15.10;;;6.53;;
21901;SDS011;11115;46.038;14.612;2023-01-15T11:38:44;17.60;;;6.60;;
21901;SDS011;11115;46.038;14.612;2023-01-15T11:43:53;15.40;;;6.00;;
21901;SDS011;11115;46.038;14.612;2023-01-15T11:46:39;14.30;;;6.20;;
21901;SDS011;11115;46.038;14.612;2023-01-15T11:49:25;9.53;;;5.60;;
21901;SDS011;11115;46.038;14.612;2023-01-15T11:52:17;13.87;;;6.07;;
21901;SDS011;11115;46.038;14.612;2023-01-15T11:54:50;20.13;;;6.30;;
21901;SDS011;11115;46.038;14.612;2023-01-15T11:57:25;26.83;;;9.97;;
21901;SDS011;11115;46.038;14.612;2023-01-15T11:59:55;14.00;;;6.70;;
21901;SDS011;11115;46.038;14.612;2023-01-15T12:05:12;17.10;;;7.87;;
21901;SDS011;11115;46.038;14.612;2023-01-15T12:07:44;12.70;;;6.93;;
21901;SDS011;11115;46.038;14.612;2023-01-15T12:13:21;16.70;;;7.57;;
21901;SDS011;11115;46.038;14.612;2023-01-15T12:30:20;16.27;;;6.67;;
21901;SDS011;11115;46.038;14.612;2023-01-15T12:38:57;25.23;;;8.87;;
21901;SDS011;11115;46.038;14.612;2023-01-15T12:41:37;24.00;;;10.18;;
21901;SDS011;11115;46.038;14.612;2023-01-15T12:44:31;27.93;;;9.20;;
21901;SDS011;11115;46.038;14.612;2023-01-15T12:47:23;33.07;;;9.70;;
21901;SDS011;11115;46.038;14.612;2023-01-15T12:50:01;16.20;;;9.27;;
21901;SDS011;11115;46.038;14.612;2023-01-15T12:52:34;21.43;;;8.70;;
21901;SDS011;11115;46.038;14.612;2023-01-15T12:55:12;21.40;;;7.67;;
21901;SDS011;11115;46.038;14.612;2023-01-15T12:57:46;32.63;;;6.90;;
21901;SDS011;11115;46.038;14.612;2023-01-15T13:00:24;19.17;;;8.67;;
21901;SDS011;11115;46.038;14.612;2023-01-15T13:02:59;13.20;;;7.43;;
21901;SDS011;11115;46.038;14.612;2023-01-15T13:05:45;17.07;;;6.57;;
21901;SDS011;11115;46.038;14.612;2023-01-15T13:08:23;10.20;;;4.97;;
21901;SDS011;11115;46.038;14.612;2023-01-15T13:10:56;12.70;;;5.07;;
21901;SDS011;11115;46.038;14.612;2023-01-15T13:13:25;15.60;;;6.20;;
21901;SDS011;11115;46.038;14.612;2023-01-15T13:16:00;15.20;;;5.93;;
21901;SDS011;11115;46.038;14.612;2023-01-15T13:18:31;17.63;;;6.70;;
21901;SDS011;11115;46.038;14.612;2023-01-15T13:21:13;22.33;;;7.03;;
21901;SDS011;11115;46.038;14.612;2023-01-15T13:23:49;16.33;;;6.65;;
21901;SDS011;11115;46.038;14.612;2023-01-15T13:32:28;16.03;;;6.43;;
21901;SDS011;11115;46.038;14.612;2023-01-15T13:37:45;12.43;;;5.97;;
21901;SDS011;11115;46.038;14.612;2023-01-15T13:43:35;15.87;;;6.67;;
21901;SDS011;11115;46.038;14.612;2023-01-15T13:46:07;15.57;;;7.83;;
21901;SDS011;11115;46.038;14.612;2023-01-15T13:48:40;10.47;;;5.47;;
21901;SDS011;11115;46.038;14.612;2023-01-15T13:51:24;12.30;;;5.97;;
21901;SDS011;11115;46.038;14.612;2023-01-15T13:53:55;16.77;;;6.37;;
21901;SDS011;11115;46.038;14.612;2023-01-15T13:56:29;7.40;;;4.83;;
21901;SDS011;11115;46.038;14.612;2023-01-15T13:59:03;10.77;;;5.57;;
21901;SDS011;11115;46.038;14.612;2023-01-15T14:01:33;17.07;;;5.10;;
21901;SDS011;11115;46.038;14.612;2023-01-15T14:06:49;14.73;;;6.43;;
21901;SDS011;11115;46.038;14.612;2023-01-15T14:17:04;7.47;;;3.87;;
21901;SDS011;11115;46.038;14.612;2023-01-15T14:19:50;11.83;;;3.73;;
21901;SDS011;11115;46.038;14.612;2023-01-15T14:22:51;6.97;;;3.20;;
21901;SDS011;11115;46.038;14.612;2023-01-15T14:25:52;13.13;;;4.00;;
21901;SDS011;11115;46.038;14.612;2023-01-15T14:42:04;7.10;;;3.60;;
21901;SDS011;11115;46.038;14.612;2023-01-15T14:45:06;5.67;;;2.77;;
21901;SDS011;11115;46.038;14.612;2023-01-15T14:47:56;3.33;;;2.40;;
21901;SDS011;11115;46.038;14.612;2023-01-15T14:53:00;1.43;;;1.23;;
21901;SDS011;11115;46.038;14.612;2023-01-15T14:55:32;2.47;;;1.20;;
21901;SDS011;11115;46.038;14.612;2023-01-15T14:58:06;3.77;;;1.67;;
21901;SDS011;11115;46.038;14.612;2023-01-15T15:00:43;1.97;;;0.73;;
21901;SDS011;11115;46.038;14.612;2023-01-15T15:03:16;66.57;;;6.37;;
21901;SDS011;11115;46.038;14.612;2023-01-15T15:05:48;3.43;;;1.60;;
21901;SDS011;11115;46.038;14.612;2023-01-15T15:08:17;2.40;;;1.07;;
21901;SDS011;11115;46.038;14.612;2023-01-15T15:10:48;2.53;;;1.93;;
21901;SDS011;11115;46.038;14.612;2023-01-15T15:13:30;3.37;;;0.90;;
21901;SDS011;11115;46.038;14.612;2023-01-15T15:16:23;5.07;;;1.83;;
21901;SDS011;11115;46.038;14.612;2023-01-15T15:18:57;8.93;;;2.23;;
21901;SDS011;11115;46.038;14.612;2023-01-15T15:21:38;17.67;;;2.57;;
21901;SDS011;11115;46.038;14.612;2023-01-15T15:24:30;6.40;;;2.20;;
21901;SDS011;11115;46.038;14.612;2023-01-15T15:27:36;7.20;;;1.88;;
21901;SDS011;11115;46.038;14.612;2023-01-15T15:30:03;3.37;;;1.73;;
21901;SDS011;11115;46.038;14.612;2023-01-15T15:32:32;9.83;;;3.00;;
21901;SDS011;11115;46.038;14.612;2023-01-15T15:35:14;8.20;;;2.10;;
21901;SDS011;11115;46.038;14.612;2023-01-15T15:37:53;3.53;;;1.57;;
21901;SDS011;11115;46.038;14.612;2023-01-15T15:40:23;3.50;;;1.40;;
21901;SDS011;11115;46.038;14.612;2023-01-15T15:45:49;10.00;;;2.80;;
21901;SDS011;11115;46.038;14.612;2023-01-15T15:48:37;9.40;;;3.53;;
21901;SDS011;11115;46.038;14.612;2023-01-15T15:56:40;3.07;;;1.80;;
21901;SDS011;11115;46.038;14.612;2023-01-15T15:59:16;5.30;;;2.00;;
21901;SDS011;11115;46.038;14.612;2023-01-15T16:01:51;7.97;;;2.10;;
21901;SDS011;11115;46.038;14.612;2023-01-15T16:04:20;3.03;;;2.37;;
21901;SDS011;11115;46.038;14.612;2023-01-15T16:06:49;4.90;;;2.10;;
21901;SDS011;11115;46.038;14.612;2023-01-15T16:09:21;7.30;;;2.40;;
21901;SDS011;11115;46.038;14.612;2023-01-15T16:11:50;6.43;;;2.30;;
21901;SDS011;11115;46.038;14.612;2023-01-15T16:14:20;5.33;;;2.13;;
21901;SDS011;11115;46.038;14.612;2023-01-15T16:16:49;7.13;;;1.70;;
21901;SDS011;11115;46.038;14.612;2023-01-15T16:19:20;1.43;;;1.33;;
21901;SDS011;11115;46.038;14.612;2023-01-15T16:21:50;7.37;;;2.10;;
21901;SDS011;11115;46.038;14.612;2023-01-15T16:24:21;2.33;;;1.87;;
21901;SDS011;11115;46.038;14.612;2023-01-15T16:29:29;51.40;;;15.37;;
21901;SDS011;11115;46.038;14.612;2023-01-15T16:34:29;84.63;;;22.80;;
21901;SDS011;11115;46.038;14.612;2023-01-15T16:36:59;25.93;;;9.17;;
21901;SDS011;11115;46.038;14.612;2023-01-15T16:42:24;4.47;;;2.53;;
21901;SDS011;11115;46.038;14.612;2023-01-15T16:44:57;5.63;;;2.97;;
21901;SDS011;11115;46.038;14.612;2023-01-15T16:47:28;4.65;;;3.08;;
21901;SDS011;11115;46.038;14.612;2023-01-15T16:52:49;2.20;;;0.90;;
21901;SDS011;11115;46.038;14.612;2023-01-15T16:55:35;3.13;;;1.60;;
21901;SDS011;11115;46.038;14.612;2023-01-15T17:00:39;5.30;;;2.00;;
21901;SDS011;11115;46.038;14.612;2023-01-15T17:03:11;6.50;;;2.20;;
21901;SDS011;11115;46.038;14.612;2023-01-15T17:05:40;2.37;;;1.20;;
21901;SDS011;11115;46.038;14.612;2023-01-15T17:08:53;2.03;;;1.43;;
21901;SDS011;11115;46.038;14.612;2023-01-15T17:11:06;6.73;;;2.80;;
21901;SDS011;11115;46.038;14.612;2023-01-15T17:13:57;5.87;;;2.53;;
21901;SDS011;11115;46.038;14.612;2023-01-15T17:16:34;9.30;;;3.30;;
21901;SDS011;11115;46.038;14.612;2023-01-15T17:19:03;9.73;;;4.27;;
21901;SDS011;11115;46.038;14.612;2023-01-15T17:21:33;5.88;;;2.78;;
21901;SDS011;11115;46.038;14.612;2023-01-15T17:24:04;13.10;;;5.67;;
21901;SDS011;11115;46.038;14.612;2023-01-15T17:26:33;5.80;;;2.67;;
21901;SDS011;11115;46.038;14.612;2023-01-15T17:29:01;13.50;;;5.63;;
21901;SDS011;11115;46.038;14.612;2023-01-15T17:31:30;15.83;;;9.10;;
21901;SDS011;11115;46.038;14.612;2023-01-15T17:34:00;13.23;;;7.10;;
21901;SDS011;11115;46.038;14.612;2023-01-15T17:36:29;17.90;;;9.57;;